Terminal Aerodrome Forecast
Issued by NWS

Home | Current Version | Previous Version | Text Only | Print | Product List | Glossary On
Versions: 1 2 3 4 5 6 7 8 9 10 11 12 13 14 15 16
000
FTAK31 PANC 240537
TAFADU
TAF
PADU 240537Z 2406/2506 VRB05KT P6SM VCSH SCT025 BKN050
     FM241000 16010G22KT P6SM SCT050 BKN060
     FM241400 14020G30KT 6SM -RA BR BKN015 OVC025
     FM242000 15030G65KT 6SM -RA BR BKN010 OVC020
     FM242300 22015G30KT 6SM -RA BR BKN015 OVC030=

USA.gov is the U.S. government's official web portal to all federal, state and local government web resources and services.